Hay Miller Street, Australia
Current Conditions -  °F | °C
As of 5:00 AM on Monday 22 Dec 2014 (Local Time) from YGTH Reporting Station
Clear Clear  
Wind Chill: 75°   Ceiling: Unl
Heat Index: 75°   Visibility: 6mi
Dew Point: 43°   Wind: 10mph
Humidity: 31%   Direction: 90°E
Pressure: 29.83"   Gusts: NA
Location:  34.52°S, 144.86°E
Report Text: YGTH 211800Z AUTO 09009KT 9999 // NCD 24/06 Q1010
Loading
Personal Weather Stations






























Interactive Weather Map New forecast layout! Learn more

10-Day Weather Forecast

Advertisements
Track Severe Weather on mobile